Time;durP1;ratioP1;P1;durP2;ratioP2;P2;SDS_P1;SDS_P2;PMS_P1;PMS_P2;Temp;Humidity;BMP_temperature;BMP_pressure;BME280_temperature;BME280_humidity;BME280_pressure;Samples;Min_cycle;Max_cycle;Signal;HPM_P1;HPM_P2
2021/12/22 00:01:15;;;;;;;170.00;77.70;;;;;;;;;;4917683;29;20115;-72
2021/12/22 00:03:46;;;;;;;167.15;78.55;;;;;;;;;;4918181;29;20091;-66
2021/12/22 00:06:14;;;;;;;167.32;78.95;;;;;;;;;;4917766;29;20472;-67
2021/12/22 00:08:40;;;;;;;165.32;74.38;;;;;;;;;;4917968;29;20365;-68
2021/12/22 00:11:06;;;;;;;149.23;69.47;;;;;;;;;;4917257;29;20400;-68
2021/12/22 00:13:32;;;;;;;118.90;55.33;;;;;;;;;;4917680;29;20095;-66
2021/12/22 00:15:58;;;;;;;120.20;56.25;;;;;;;;;;4917958;29;20047;-71
2021/12/22 00:18:24;;;;;;;129.07;61.28;;;;;;;;;;4917667;29;20028;-67
2021/12/22 00:20:50;;;;;;;119.57;55.95;;;;;;;;;;4917604;29;20032;-67
2021/12/22 00:23:16;;;;;;;139.52;64.55;;;;;;;;;;4916995;29;20139;-69
2021/12/22 00:25:42;;;;;;;121.55;55.03;;;;;;;;;;4917287;29;20481;-68
2021/12/22 00:28:08;;;;;;;120.88;55.20;;;;;;;;;;4917432;29;20039;-71
2021/12/22 00:30:36;;;;;;;109.65;50.42;;;;;;;;;;4917374;29;20028;-71
2021/12/22 00:33:05;;;;;;;97.35;46.28;;;;;;;;;;4917102;29;20024;-66
2021/12/22 00:35:38;;;;;;;96.82;46.33;;;;;;;;;;4917446;29;20024;-66
2021/12/22 00:38:06;;;;;;;103.18;47.85;;;;;;;;;;4916809;29;20043;-76
2021/12/22 00:40:32;;;;;;;95.70;44.50;;;;;;;;;;4917117;29;20456;-67
2021/12/22 00:42:58;;;;;;;89.57;42.78;;;;;;;;;;4916833;29;20388;-65
2021/12/22 00:45:27;;;;;;;88.22;41.72;;;;;;;;;;4915766;29;20051;-69
2021/12/22 00:47:53;;;;;;;91.88;42.80;;;;;;;;;;4917171;29;20376;-73
2021/12/22 00:50:19;;;;;;;87.10;40.78;;;;;;;;;;4916831;29;20059;-76
2021/12/22 00:52:45;;;;;;;80.15;38.70;;;;;;;;;;4917261;29;20100;-71
2021/12/22 00:55:16;;;;;;;63.72;31.85;;;;;;;;;;4916762;29;20040;-66
2021/12/22 00:57:43;;;;;;;65.63;30.60;;;;;;;;;;4917019;29;20032;-67
2021/12/22 01:00:09;;;;;;;63.35;30.63;;;;;;;;;;4916995;29;20020;-66
2021/12/22 01:02:35;;;;;;;60.17;27.88;;;;;;;;;;4916393;29;20495;-69
2021/12/22 01:05:02;;;;;;;54.08;26.38;;;;;;;;;;4917214;29;20496;-68
2021/12/22 01:07:28;;;;;;;47.97;23.38;;;;;;;;;;4916822;29;20127;-66
2021/12/22 01:09:54;;;;;;;47.72;23.60;;;;;;;;;;4916758;29;20024;-68
2021/12/22 01:12:20;;;;;;;47.92;23.90;;;;;;;;;;4916749;29;20523;-69
2021/12/22 01:14:46;;;;;;;52.53;24.75;;;;;;;;;;4917045;29;20032;-72
2021/12/22 01:17:14;;;;;;;46.50;23.42;;;;;;;;;;4916389;29;20032;-69
2021/12/22 01:19:51;;;;;;;51.60;25.02;;;;;;;;;;4916713;29;20111;-71
2021/12/22 01:22:52;;;;;;;46.78;24.85;;;;;;;;;;4914429;29;20467;-68
2021/12/22 01:25:12;;;;;;;47.90;23.55;;;;;;;;;;4914042;29;20076;-74
2021/12/22 01:27:43;;;;;;;46.67;23.17;;;;;;;;;;4916590;29;20555;-70
2021/12/22 01:30:09;;;;;;;42.38;22.02;;;;;;;;;;4916504;29;20111;-66
2021/12/22 01:32:35;;;;;;;42.25;22.10;;;;;;;;;;4916094;29;20028;-70
2021/12/22 01:35:02;;;;;;;43.88;22.35;;;;;;;;;;4916578;29;20435;-66
2021/12/22 01:37:28;;;;;;;43.03;22.27;;;;;;;;;;4916104;29;20135;-69
2021/12/22 01:39:54;;;;;;;48.78;25.63;;;;;;;;;;4915779;29;20035;-73
2021/12/22 01:42:20;;;;;;;52.42;25.48;;;;;;;;;;4899052;29;20488;-67
2021/12/22 01:50:31;;;;;;;42.22;21.90;;;;;;;;;;4916610;29;20115;-66
2021/12/22 01:52:58;;;;;;;48.08;24.13;;;;;;;;;;4916048;29;20025;-77
2021/12/22 01:55:32;;;;;;;50.47;25.45;;;;;;;;;;4914865;29;20035;-75
2021/12/22 01:57:59;;;;;;;47.95;24.63;;;;;;;;;;4915835;29;20560;-66
2021/12/22 02:00:26;;;;;;;42.65;23.98;;;;;;;;;;4915917;29;20091;-67
2021/12/22 02:02:52;;;;;;;52.58;25.02;;;;;;;;;;4915909;29;20036;-72
2021/12/22 02:05:18;;;;;;;51.17;25.77;;;;;;;;;;4915239;29;20488;-76
2021/12/22 02:07:44;;;;;;;57.38;28.08;;;;;;;;;;4915860;29;20032;-76
2021/12/22 02:12:50;;;;;;;60.08;29.10;;;;;;;;;;4915488;29;20123;-67
2021/12/22 02:15:16;;;;;;;52.67;27.58;;;;;;;;;;4913901;29;20046;-66
2021/12/22 02:17:43;;;;;;;54.35;27.13;;;;;;;;;;4915744;29;20039;-71
2021/12/22 02:20:09;;;;;;;51.58;25.83;;;;;;;;;;4915350;29;20059;-66
2021/12/22 02:22:37;;;;;;;45.10;23.20;;;;;;;;;;4915031;29;20047;-66
2021/12/22 02:25:12;;;;;;;44.50;23.73;;;;;;;;;;4915650;29;20038;-67
2021/12/22 02:27:45;;;;;;;42.35;23.25;;;;;;;;;;4914888;29;20602;-79
2021/12/22 02:30:17;;;;;;;40.92;22.77;;;;;;;;;;4915285;29;20121;-71
2021/12/22 02:35:37;;;;;;;41.40;21.15;;;;;;;;;;4914938;29;19907;-68
2021/12/22 02:38:03;;;;;;;40.90;20.85;;;;;;;;;;4915394;29;20044;-67
2021/12/22 02:40:29;;;;;;;34.90;20.00;;;;;;;;;;4915135;29;20082;-66
2021/12/22 02:43:04;;;;;;;35.30;19.45;;;;;;;;;;4915113;29;20047;-68
2021/12/22 02:45:31;;;;;;;37.15;19.83;;;;;;;;;;4915340;29;20032;-68
2021/12/22 02:47:57;;;;;;;34.55;19.08;;;;;;;;;;4914816;29;20028;-75
2021/12/22 02:50:23;;;;;;;40.45;20.15;;;;;;;;;;4915257;29;20058;-78
2021/12/22 02:55:32;;;;;;;38.80;21.05;;;;;;;;;;4914599;29;20044;-67
2021/12/22 02:58:03;;;;;;;38.10;20.58;;;;;;;;;;4915138;29;20095;-67
2021/12/22 03:05:21;;;;;;;44.75;21.70;;;;;;;;;;4915361;29;20539;-71
2021/12/22 03:07:48;;;;;;;43.40;22.27;;;;;;;;;;4914257;29;20028;-69
2021/12/22 03:10:18;;;;;;;42.70;21.90;;;;;;;;;;4914821;29;20119;-74
2021/12/22 03:12:47;;;;;;;46.70;24.38;;;;;;;;;;4914729;29;20079;-66
2021/12/22 03:15:15;;;;;;;50.05;25.30;;;;;;;;;;4914927;29;20050;-75
2021/12/22 03:17:41;;;;;;;44.67;23.77;;;;;;;;;;4914870;29;20031;-67
2021/12/22 03:20:08;;;;;;;44.67;23.60;;;;;;;;;;4914570;29;20111;-67
2021/12/22 03:22:36;;;;;;;48.30;24.92;;;;;;;;;;4913905;29;20068;-72
2021/12/22 03:25:02;;;;;;;46.17;24.90;;;;;;;;;;4914780;29;20040;-75
2021/12/22 03:27:28;;;;;;;47.90;24.70;;;;;;;;;;4914213;29;20083;-71
2021/12/22 03:29:54;;;;;;;49.63;26.17;;;;;;;;;;4914896;29;20029;-64
2021/12/22 03:32:20;;;;;;;51.38;24.90;;;;;;;;;;4913353;29;20484;-69
2021/12/22 03:34:46;;;;;;;53.17;26.27;;;;;;;;;;4914603;29;20111;-65
2021/12/22 03:37:13;;;;;;;51.58;26.65;;;;;;;;;;4914583;29;20040;-65
2021/12/22 03:39:39;;;;;;;44.85;25.27;;;;;;;;;;4914318;29;20032;-69
2021/12/22 03:42:07;;;;;;;49.72;25.52;;;;;;;;;;4914657;29;20043;-75
2021/12/22 03:44:33;;;;;;;49.38;24.85;;;;;;;;;;4914434;29;20451;-65
2021/12/22 03:47:00;;;;;;;45.38;24.90;;;;;;;;;;4914644;29;20032;-65
2021/12/22 03:49:27;;;;;;;45.42;24.23;;;;;;;;;;4914599;29;20031;-69
2021/12/22 03:51:53;;;;;;;45.90;23.38;;;;;;;;;;4914555;29;20036;-70
2021/12/22 03:54:19;;;;;;;44.47;23.25;;;;;;;;;;4914396;29;20063;-66
2021/12/22 03:56:46;;;;;;;45.42;23.17;;;;;;;;;;4914386;29;20044;-74
2021/12/22 03:59:12;;;;;;;45.05;24.27;;;;;;;;;;4914583;29;20032;-66
2021/12/22 04:01:38;;;;;;;44.65;22.77;;;;;;;;;;4914207;29;20166;-66
2021/12/22 04:04:11;;;;;;;43.25;22.48;;;;;;;;;;4914007;29;20051;-70
2021/12/22 04:06:38;;;;;;;44.35;23.70;;;;;;;;;;4914119;29;20066;-79
2021/12/22 04:09:05;;;;;;;44.00;22.90;;;;;;;;;;4914179;29;20052;-80
2021/12/22 04:11:31;;;;;;;37.05;20.73;;;;;;;;;;4913959;29;20055;-79
2021/12/22 04:13:57;;;;;;;32.53;19.00;;;;;;;;;;4914339;29;20024;-71
2021/12/22 04:16:23;;;;;;;36.88;20.30;;;;;;;;;;4914353;29;20025;-74
2021/12/22 04:18:49;;;;;;;37.97;20.35;;;;;;;;;;4914473;29;20270;-68
2021/12/22 04:21:15;;;;;;;35.90;20.13;;;;;;;;;;4917584;29;20039;-77
2021/12/22 04:23:41;;;;;;;36.78;20.25;;;;;;;;;;4915881;29;20059;-75
2021/12/22 04:26:07;;;;;;;36.03;18.95;;;;;;;;;;4917417;29;20626;-65
2021/12/22 04:28:33;;;;;;;34.38;17.08;;;;;;;;;;4917202;29;20020;-65
2021/12/22 04:30:59;;;;;;;31.65;17.35;;;;;;;;;;4917121;29;20500;-65
2021/12/22 04:33:25;;;;;;;35.28;19.33;;;;;;;;;;4917734;29;20096;-66
2021/12/22 04:35:52;;;;;;;37.08;19.27;;;;;;;;;;4917330;29;20040;-65
2021/12/22 04:38:18;;;;;;;38.50;20.73;;;;;;;;;;4917282;29;20395;-66
2021/12/22 04:40:44;;;;;;;39.83;21.10;;;;;;;;;;4917176;29;20035;-66
2021/12/22 04:43:11;;;;;;;40.58;22.13;;;;;;;;;;4917523;29;20020;-66
2021/12/22 04:45:37;;;;;;;36.97;20.35;;;;;;;;;;4917315;29;20123;-66
2021/12/22 04:48:03;;;;;;;34.05;19.60;;;;;;;;;;4917535;29;20024;-65
2021/12/22 04:50:31;;;;;;;37.75;20.00;;;;;;;;;;4916517;29;20039;-65
2021/12/22 04:53:02;;;;;;;36.08;20.55;;;;;;;;;;4915554;29;20080;-72
2021/12/22 04:55:28;;;;;;;40.22;21.27;;;;;;;;;;4917155;29;20472;-74
2021/12/22 04:57:55;;;;;;;38.58;20.13;;;;;;;;;;4916906;29;20044;-65
2021/12/22 05:00:22;;;;;;;38.60;19.60;;;;;;;;;;4917531;29;20034;-65
2021/12/22 05:02:49;;;;;;;38.20;20.65;;;;;;;;;;4916754;29;20403;-66
2021/12/22 05:05:15;;;;;;;35.15;20.13;;;;;;;;;;4917126;29;20028;-65
2021/12/22 05:07:43;;;;;;;41.63;20.48;;;;;;;;;;4916848;29;20049;-66
2021/12/22 05:10:09;;;;;;;44.97;24.48;;;;;;;;;;4917093;29;20099;-72
2021/12/22 05:12:35;;;;;;;56.25;28.95;;;;;;;;;;4916291;29;20036;-79
2021/12/22 05:15:02;;;;;;;41.88;24.67;;;;;;;;;;4916551;29;20543;-78
2021/12/22 05:17:39;;;;;;;44.42;23.95;;;;;;;;;;4916893;29;20048;-65
2021/12/22 05:20:05;;;;;;;43.13;22.98;;;;;;;;;;4916795;29;20597;-68
2021/12/22 05:22:31;;;;;;;40.42;22.90;;;;;;;;;;4916671;29;20162;-66
2021/12/22 05:24:59;;;;;;;44.88;23.45;;;;;;;;;;4916680;29;20059;-71
2021/12/22 05:27:25;;;;;;;44.95;23.63;;;;;;;;;;4916527;29;20381;-74
2021/12/22 05:29:51;;;;;;;43.40;23.33;;;;;;;;;;4916074;29;20024;-73
2021/12/22 05:32:17;;;;;;;42.60;22.15;;;;;;;;;;4916250;29;20032;-75
2021/12/22 05:34:43;;;;;;;45.83;23.70;;;;;;;;;;4916577;29;20036;-70
2021/12/22 05:37:09;;;;;;;42.17;21.55;;;;;;;;;;4915997;29;20040;-65
2021/12/22 05:39:35;;;;;;;39.28;21.17;;;;;;;;;;4916438;29;20020;-69
2021/12/22 05:42:02;;;;;;;44.58;22.65;;;;;;;;;;4916122;29;20452;-65
2021/12/22 05:44:28;;;;;;;40.53;21.52;;;;;;;;;;4916209;29;20473;-80
2021/12/22 05:46:54;;;;;;;40.17;22.65;;;;;;;;;;4916271;29;20059;-69
2021/12/22 05:49:20;;;;;;;41.03;22.65;;;;;;;;;;4916017;29;20028;-65
2021/12/22 05:51:46;;;;;;;36.97;21.90;;;;;;;;;;4915481;29;20047;-66
2021/12/22 05:54:12;;;;;;;45.38;22.17;;;;;;;;;;4915964;29;20108;-67
2021/12/22 05:56:38;;;;;;;45.55;22.40;;;;;;;;;;4915670;29;20467;-67
2021/12/22 05:59:04;;;;;;;40.50;22.50;;;;;;;;;;4915868;29;20028;-77
2021/12/22 06:01:31;;;;;;;48.60;24.42;;;;;;;;;;4915520;29;20043;-67
2021/12/22 06:04:00;;;;;;;47.83;23.20;;;;;;;;;;4915810;29;20068;-76
2021/12/22 06:06:26;;;;;;;45.20;23.75;;;;;;;;;;4915605;29;20020;-77
2021/12/22 06:08:53;;;;;;;45.33;23.42;;;;;;;;;;4915952;29;20032;-67
2021/12/22 06:11:19;;;;;;;49.83;24.27;;;;;;;;;;4915640;29;20032;-73
2021/12/22 06:13:45;;;;;;;48.78;24.90;;;;;;;;;;4914245;29;20064;-69
2021/12/22 06:16:11;;;;;;;47.28;24.23;;;;;;;;;;4915331;29;20111;-72
2021/12/22 06:18:42;;;;;;;54.58;25.00;;;;;;;;;;4915904;29;20031;-66
2021/12/22 06:21:09;;;;;;;53.55;26.77;;;;;;;;;;4915690;29;20044;-65
2021/12/22 06:23:35;;;;;;;56.45;28.15;;;;;;;;;;4915219;29;20093;-65
2021/12/22 06:26:02;;;;;;;45.97;26.30;;;;;;;;;;4914972;29;20024;-68
2021/12/22 06:28:28;;;;;;;50.58;27.58;;;;;;;;;;4915179;29;20111;-66
2021/12/22 06:30:54;;;;;;;78.60;39.78;;;;;;;;;;4915136;29;20020;-66
2021/12/22 06:33:20;;;;;;;54.13;29.55;;;;;;;;;;4915141;29;20036;-70
2021/12/22 06:35:47;;;;;;;59.13;30.42;;;;;;;;;;4915196;29;20052;-68
2021/12/22 06:38:16;;;;;;;58.83;31.83;;;;;;;;;;4914728;29;20059;-70
2021/12/22 06:40:43;;;;;;;57.05;30.15;;;;;;;;;;4914393;29;20020;-64
2021/12/22 06:43:09;;;;;;;53.35;29.10;;;;;;;;;;4913904;29;20032;-63
2021/12/22 06:45:35;;;;;;;53.47;29.17;;;;;;;;;;4914998;29;20024;-73
2021/12/22 06:48:01;;;;;;;54.22;29.77;;;;;;;;;;4914601;29;20028;-64
2021/12/22 06:50:27;;;;;;;58.08;30.20;;;;;;;;;;4914801;29;20061;-70
2021/12/22 06:52:53;;;;;;;58.80;31.17;;;;;;;;;;4914124;29;20489;-64
2021/12/22 06:55:20;;;;;;;61.67;30.60;;;;;;;;;;4914869;29;20063;-64
2021/12/22 06:57:46;;;;;;;58.83;30.55;;;;;;;;;;4914471;29;20408;-67
2021/12/22 07:00:13;;;;;;;59.03;29.30;;;;;;;;;;4914696;29;20377;-65
2021/12/22 07:02:40;;;;;;;60.20;29.48;;;;;;;;;;4914341;29;20032;-64
2021/12/22 07:05:07;;;;;;;62.72;31.95;;;;;;;;;;4914619;29;20437;-69
2021/12/22 07:07:33;;;;;;;69.25;34.22;;;;;;;;;;4915086;29;20505;-68
2021/12/22 07:09:59;;;;;;;67.80;31.50;;;;;;;;;;4914612;29;20032;-64
2021/12/22 07:12:26;;;;;;;258.88;135.15;;;;;;;;;;4914371;29;20103;-64
2021/12/22 07:14:52;;;;;;;116.00;60.28;;;;;;;;;;4914389;29;20047;-70
2021/12/22 07:17:18;;;;;;;109.40;53.15;;;;;;;;;;4911380;29;20043;-68
2021/12/22 07:19:44;;;;;;;98.25;48.47;;;;;;;;;;4903369;29;20401;-63
2021/12/22 07:22:10;;;;;;;161.90;80.38;;;;;;;;;;4899621;29;20032;-63
2021/12/22 07:24:36;;;;;;;93.97;49.13;;;;;;;;;;4914192;29;20052;-67
2021/12/22 07:27:02;;;;;;;103.07;50.78;;;;;;;;;;4914607;29;20036;-65
2021/12/22 07:29:28;;;;;;;106.50;54.75;;;;;;;;;;4914486;29;20251;-72
2021/12/22 07:31:54;;;;;;;121.00;60.25;;;;;;;;;;4914312;29;20043;-69
2021/12/22 07:34:25;;;;;;;121.80;59.30;;;;;;;;;;4902463;29;20104;-63
2021/12/22 07:36:55;;;;;;;115.22;58.42;;;;;;;;;;4893860;29;20833;-66
2021/12/22 07:39:21;;;;;;;129.65;63.38;;;;;;;;;;4895509;29;20048;-63
2021/12/22 07:41:47;;;;;;;132.82;64.90;;;;;;;;;;4895144;29;20079;-64
2021/12/22 07:44:13;;;;;;;129.45;63.78;;;;;;;;;;4894806;29;20036;-69
2021/12/22 07:46:39;;;;;;;140.98;67.88;;;;;;;;;;4895107;29;20025;-68
2021/12/22 07:49:05;;;;;;;151.43;76.38;;;;;;;;;;4894956;29;20172;-68
2021/12/22 07:51:32;;;;;;;179.00;88.75;;;;;;;;;;4894283;29;20033;-70
2021/12/22 07:53:58;;;;;;;186.40;90.07;;;;;;;;;;4894941;29;20542;-68
2021/12/22 07:56:24;;;;;;;194.00;92.35;;;;;;;;;;4896581;29;20037;-62
2021/12/22 07:58:51;;;;;;;278.10;126.53;;;;;;;;;;4897197;29;20032;-77
2021/12/22 08:01:17;;;;;;;278.65;125.07;;;;;;;;;;4897725;29;20103;-64
2021/12/22 08:03:43;;;;;;;150.73;71.47;;;;;;;;;;4897264;29;20042;-66
2021/12/22 08:06:10;;;;;;;130.50;62.38;;;;;;;;;;4894356;29;20441;-64
2021/12/22 08:08:36;;;;;;;64.32;29.65;;;;;;;;;;4897129;29;20028;-65
2021/12/22 08:11:02;;;;;;;58.97;31.45;;;;;;;;;;4897005;29;20233;-63
2021/12/22 08:13:28;;;;;;;69.30;34.80;;;;;;;;;;4897304;29;20416;-61
2021/12/22 08:15:54;;;;;;;59.05;30.85;;;;;;;;;;4896512;29;20381;-68
2021/12/22 08:18:20;;;;;;;56.58;28.80;;;;;;;;;;4896790;29;20572;-62
2021/12/22 08:20:47;;;;;;;46.95;25.08;;;;;;;;;;4897040;29;20846;-64
2021/12/22 08:23:13;;;;;;;52.17;26.48;;;;;;;;;;4893071;29;20497;-63
2021/12/22 08:25:39;;;;;;;59.53;33.00;;;;;;;;;;4889157;29;20073;-62
2021/12/22 08:28:05;;;;;;;55.35;29.73;;;;;;;;;;4891512;29;20029;-63
2021/12/22 08:30:32;;;;;;;74.43;40.95;;;;;;;;;;4890877;29;20506;-63
2021/12/22 08:33:05;;;;;;;75.18;39.50;;;;;;;;;;4891858;29;20104;-60
2021/12/22 08:38:49;;;;;;;75.93;36.60;;;;;;;;;;4891683;29;20119;-62
2021/12/22 08:41:02;;;;;;;57.95;29.33;;;;;;;;;;4885711;29;20023;-61
2021/12/22 08:43:28;;;;;;;48.55;28.58;;;;;;;;;;4886732;29;20160;-64
2021/12/22 08:45:54;;;;;;;47.67;26.23;;;;;;;;;;4885218;29;20028;-65
2021/12/22 08:48:20;;;;;;;56.05;29.27;;;;;;;;;;4887045;29;20188;-62
2021/12/22 08:50:46;;;;;;;63.13;33.28;;;;;;;;;;4889292;29;20033;-62
2021/12/22 08:53:12;;;;;;;65.32;33.38;;;;;;;;;;4896170;29;20025;-65
2021/12/22 08:55:38;;;;;;;89.00;46.03;;;;;;;;;;4896242;29;20032;-61
2021/12/22 08:58:04;;;;;;;89.57;48.13;;;;;;;;;;4895984;29;20069;-62
2021/12/22 09:00:33;;;;;;;97.63;50.60;;;;;;;;;;4896373;29;20024;-61
2021/12/22 09:02:59;;;;;;;101.00;51.25;;;;;;;;;;4895888;29;20465;-60
2021/12/22 09:05:25;;;;;;;99.40;52.50;;;;;;;;;;4895572;29;20043;-62
2021/12/22 09:07:51;;;;;;;107.20;54.45;;;;;;;;;;4897208;29;20101;-61
2021/12/22 09:10:18;;;;;;;115.22;60.63;;;;;;;;;;4896089;29;20112;-63
2021/12/22 09:12:44;;;;;;;103.28;53.63;;;;;;;;;;4896208;29;20085;-64
2021/12/22 09:15:10;;;;;;;96.47;48.85;;;;;;;;;;4896165;29;20032;-64
2021/12/22 09:17:36;;;;;;;91.88;47.70;;;;;;;;;;4896071;29;20032;-63
2021/12/22 09:20:03;;;;;;;81.30;44.15;;;;;;;;;;4895839;29;20066;-66
2021/12/22 09:22:29;;;;;;;88.45;47.05;;;;;;;;;;4896185;29;20196;-62
2021/12/22 09:24:55;;;;;;;89.72;46.63;;;;;;;;;;4896067;29;20036;-62
2021/12/22 09:27:21;;;;;;;78.57;43.58;;;;;;;;;;4895638;29;20056;-65
2021/12/22 09:29:47;;;;;;;86.85;46.30;;;;;;;;;;4896098;29;20025;-61
2021/12/22 09:32:15;;;;;;;84.30;44.35;;;;;;;;;;4896043;29;20031;-65
2021/12/22 09:34:42;;;;;;;83.80;44.83;;;;;;;;;;4896084;29;20072;-67
2021/12/22 09:37:09;;;;;;;86.65;46.28;;;;;;;;;;4896061;29;20139;-63
2021/12/22 09:39:35;;;;;;;88.88;47.22;;;;;;;;;;4895697;29;20081;-62
2021/12/22 09:42:01;;;;;;;88.63;46.47;;;;;;;;;;4896515;29;20068;-63
2021/12/22 09:44:31;;;;;;;89.68;47.10;;;;;;;;;;4896429;29;20031;-62
2021/12/22 09:46:58;;;;;;;94.70;47.72;;;;;;;;;;4897023;29;20552;-63
2021/12/22 09:54:40;;;;;;;82.15;44.17;;;;;;;;;;4896743;29;20044;-61
2021/12/22 09:57:06;;;;;;;86.93;46.03;;;;;;;;;;4895875;29;20063;-63
2021/12/22 09:59:32;;;;;;;95.05;50.88;;;;;;;;;;4896106;29;20068;-62
2021/12/22 10:01:59;;;;;;;105.10;57.78;;;;;;;;;;4896499;29;20048;-60
2021/12/22 10:04:25;;;;;;;81.68;44.95;;;;;;;;;;4895358;29;20035;-60
2021/12/22 10:06:51;;;;;;;70.85;40.65;;;;;;;;;;4895851;29;20159;-65
2021/12/22 10:09:22;;;;;;;78.85;40.83;;;;;;;;;;4896297;29;20052;-62
2021/12/22 10:11:48;;;;;;;81.00;44.25;;;;;;;;;;4896418;29;20037;-64
2021/12/22 10:14:25;;;;;;;72.72;41.13;;;;;;;;;;4893553;29;20120;-63
2021/12/22 10:16:52;;;;;;;81.50;43.92;;;;;;;;;;4893473;29;20040;-64
2021/12/22 10:19:19;;;;;;;80.47;43.65;;;;;;;;;;4895622;29;20025;-61
2021/12/22 10:21:51;;;;;;;88.38;47.45;;;;;;;;;;4894116;29;20040;-63
2021/12/22 10:24:17;;;;;;;93.43;49.20;;;;;;;;;;4895904;29;20132;-62
2021/12/22 10:26:43;;;;;;;90.90;48.60;;;;;;;;;;4895145;29;20064;-63
2021/12/22 10:29:10;;;;;;;83.43;42.67;;;;;;;;;;4895335;29;20111;-61
2021/12/22 10:31:38;;;;;;;85.72;46.72;;;;;;;;;;4895828;29;20029;-62
2021/12/22 10:34:08;;;;;;;78.47;42.17;;;;;;;;;;4895732;29;20043;-62
2021/12/22 10:36:45;;;;;;;73.95;38.70;;;;;;;;;;4896318;29;20028;-61
2021/12/22 10:39:19;;;;;;;71.28;38.15;;;;;;;;;;4895979;29;20063;-61
2021/12/22 10:41:45;;;;;;;72.93;38.42;;;;;;;;;;4894116;29;20046;-63
2021/12/22 10:44:12;;;;;;;66.35;37.28;;;;;;;;;;4895839;29;20096;-61
2021/12/22 10:46:38;;;;;;;79.43;42.17;;;;;;;;;;4893706;29;20442;-65
2021/12/22 10:49:19;;;;;;;73.45;41.58;;;;;;;;;;4894669;29;20032;-62
2021/12/22 10:52:04;;;;;;;75.22;40.50;;;;;;;;;;4896279;29;20452;-62
2021/12/22 10:54:35;;;;;;;82.65;44.83;;;;;;;;;;4894750;29;20025;-62
2021/12/22 10:57:02;;;;;;;82.65;44.90;;;;;;;;;;4895555;29;20037;-63
2021/12/22 10:59:28;;;;;;;78.38;43.92;;;;;;;;;;4895975;29;20021;-68
2021/12/22 11:01:54;;;;;;;70.63;38.97;;;;;;;;;;4895459;29;20068;-64
2021/12/22 11:04:25;;;;;;;71.85;40.33;;;;;;;;;;4895156;29;20021;-66
2021/12/22 11:06:53;;;;;;;69.50;36.33;;;;;;;;;;4896040;29;20092;-69
2021/12/22 11:09:21;;;;;;;61.45;34.65;;;;;;;;;;4895858;29;20473;-69
2021/12/22 11:11:47;;;;;;;64.70;34.80;;;;;;;;;;4895109;29;20017;-65
2021/12/22 11:14:13;;;;;;;75.95;39.78;;;;;;;;;;4895233;29;20107;-64
2021/12/22 11:16:58;;;;;;;65.22;35.00;;;;;;;;;;4895720;29;20043;-63
2021/12/22 11:19:25;;;;;;;68.20;36.53;;;;;;;;;;4895907;29;20037;-62
2021/12/22 11:22:12;;;;;;;72.93;37.45;;;;;;;;;;4894165;29;20037;-64
2021/12/22 11:24:42;;;;;;;62.63;34.97;;;;;;;;;;4893643;29;20048;-64
2021/12/22 11:27:10;;;;;;;62.08;35.28;;;;;;;;;;4892433;29;20039;-65
2021/12/22 11:29:37;;;;;;;70.00;36.58;;;;;;;;;;4896858;29;20037;-63
2021/12/22 11:32:07;;;;;;;66.40;34.75;;;;;;;;;;4898318;29;20040;-62
2021/12/22 11:34:35;;;;;;;61.15;35.13;;;;;;;;;;4898296;29;20036;-67
2021/12/22 11:37:02;;;;;;;61.65;33.17;;;;;;;;;;4896989;29;20040;-64
2021/12/22 11:39:30;;;;;;;62.78;34.22;;;;;;;;;;4895835;29;20020;-65
2021/12/22 11:41:58;;;;;;;65.03;33.78;;;;;;;;;;4898024;29;20037;-65
2021/12/22 11:44:28;;;;;;;63.17;32.88;;;;;;;;;;4896688;29;20400;-66
2021/12/22 11:46:55;;;;;;;58.72;33.35;;;;;;;;;;4898317;29;20092;-69
2021/12/22 11:49:22;;;;;;;62.80;34.42;;;;;;;;;;4897626;29;20343;-66
2021/12/22 11:51:48;;;;;;;61.92;33.45;;;;;;;;;;4897645;29;20033;-63
2021/12/22 11:54:14;;;;;;;64.88;33.58;;;;;;;;;;4897822;29;20025;-64
2021/12/22 11:56:40;;;;;;;56.00;31.95;;;;;;;;;;4896603;29;20033;-67
2021/12/22 11:59:07;;;;;;;57.05;32.03;;;;;;;;;;4895621;29;20076;-66
2021/12/22 12:01:33;;;;;;;51.72;30.17;;;;;;;;;;4897890;29;20119;-65
2021/12/22 12:04:13;;;;;;;54.65;29.40;;;;;;;;;;4897914;29;20033;-63
2021/12/22 12:06:49;;;;;;;49.83;27.92;;;;;;;;;;4897975;29;20171;-64
2021/12/22 12:09:15;;;;;;;54.35;28.38;;;;;;;;;;4898148;29;20028;-64
2021/12/22 12:11:53;;;;;;;53.83;31.27;;;;;;;;;;4898294;29;20040;-64
2021/12/22 12:15:25;;;;;;;58.20;29.20;;;;;;;;;;4898179;29;20092;-65
2021/12/22 12:23:19;;;;;;;49.05;25.30;;;;;;;;;;4895789;29;20060;-64
2021/12/22 12:25:45;;;;;;;45.78;25.45;;;;;;;;;;4897621;29;20560;-65
2021/12/22 12:28:15;;;;;;;74.68;40.15;;;;;;;;;;4898254;29;20028;-67
2021/12/22 12:30:42;;;;;;;46.28;22.20;;;;;;;;;;4898677;29;20037;-63
2021/12/22 12:33:10;;;;;;;33.17;18.35;;;;;;;;;;4896219;29;20032;-65
2021/12/22 12:35:38;;;;;;;31.38;17.00;;;;;;;;;;4898278;29;20029;-68
2021/12/22 12:38:11;;;;;;;31.55;17.75;;;;;;;;;;4895746;29;20036;-66
2021/12/22 12:40:57;;;;;;;34.75;19.58;;;;;;;;;;4897891;29;20492;-65
2021/12/22 12:43:44;;;;;;;39.58;19.75;;;;;;;;;;4897575;29;20032;-64
2021/12/22 12:49:04;;;;;;;31.98;16.25;;;;;;;;;;4894119;29;20033;-65
2021/12/22 12:51:33;;;;;;;31.60;16.23;;;;;;;;;;4893991;29;20410;-64
2021/12/22 12:54:10;;;;;;;29.50;16.17;;;;;;;;;;4895409;29;20032;-63
2021/12/22 12:56:37;;;;;;;32.58;17.30;;;;;;;;;;4895515;29;20201;-64
2021/12/22 12:59:08;;;;;;;45.45;24.65;;;;;;;;;;4896367;29;20035;-63
2021/12/22 13:01:46;;;;;;;35.22;18.40;;;;;;;;;;4896149;29;20786;-63
2021/12/22 13:04:33;;;;;;;31.48;15.80;;;;;;;;;;4896702;29;20032;-64
2021/12/22 13:07:03;;;;;;;28.25;15.68;;;;;;;;;;4889369;29;20051;-70
2021/12/22 13:09:40;;;;;;;35.95;18.30;;;;;;;;;;4896497;29;20108;-70
2021/12/22 13:12:19;;;;;;;27.05;14.60;;;;;;;;;;4896472;29;20136;-68
2021/12/22 13:17:34;;;;;;;23.35;13.25;;;;;;;;;;4895103;29;20087;-70
2021/12/22 13:20:01;;;;;;;33.40;19.80;;;;;;;;;;4897144;29;20540;-75
2021/12/22 13:22:27;;;;;;;25.92;14.68;;;;;;;;;;4896731;29;20056;-70
2021/12/22 13:25:20;;;;;;;28.70;14.68;;;;;;;;;;4897058;29;20064;-70
2021/12/22 13:27:47;;;;;;;27.92;14.65;;;;;;;;;;4893515;29;20051;-70
2021/12/22 13:30:18;;;;;;;27.40;16.02;;;;;;;;;;4897135;29;20043;-72
2021/12/22 13:33:03;;;;;;;29.55;16.42;;;;;;;;;;4896300;29;20040;-67
2021/12/22 13:35:32;;;;;;;31.20;16.67;;;;;;;;;;4894986;29;20029;-62
2021/12/22 13:37:58;;;;;;;26.08;15.20;;;;;;;;;;4896882;29;20040;-72
2021/12/22 13:40:45;;;;;;;26.30;15.07;;;;;;;;;;4897269;29;20021;-73
2021/12/22 13:43:37;;;;;;;25.30;13.93;;;;;;;;;;4884571;29;20036;-71
2021/12/22 13:46:03;;;;;;;25.13;14.07;;;;;;;;;;4885355;29;20131;-69
2021/12/22 13:48:30;;;;;;;25.13;13.57;;;;;;;;;;4896129;29;20443;-71
2021/12/22 13:50:57;;;;;;;25.17;14.07;;;;;;;;;;4895747;29;20059;-68
2021/12/22 13:53:24;;;;;;;22.23;13.00;;;;;;;;;;4893816;29;20079;-70
2021/12/22 13:55:51;;;;;;;21.90;13.70;;;;;;;;;;4894823;29;20064;-66
2021/12/22 13:58:44;;;;;;;21.45;12.80;;;;;;;;;;4894331;29;20032;-62
2021/12/22 14:01:39;;;;;;;25.75;15.55;;;;;;;;;;4894071;29;20043;-65
2021/12/22 14:04:08;;;;;;;23.25;12.90;;;;;;;;;;4887051;29;20576;-63
2021/12/22 14:06:46;;;;;;;23.95;13.23;;;;;;;;;;4896473;29;20127;-62
2021/12/22 14:09:13;;;;;;;20.33;11.95;;;;;;;;;;4896211;29;20459;-69
2021/12/22 14:11:44;;;;;;;26.25;14.38;;;;;;;;;;4895783;29;20460;-63
2021/12/22 14:14:19;;;;;;;33.55;18.25;;;;;;;;;;4896791;29;20520;-63
2021/12/22 14:16:46;;;;;;;26.08;13.05;;;;;;;;;;4896156;29;20104;-63
2021/12/22 14:19:19;;;;;;;55.55;29.67;;;;;;;;;;4894941;29;20480;-64
2021/12/22 14:21:48;;;;;;;39.75;19.80;;;;;;;;;;4894645;29;20033;-68
2021/12/22 14:24:19;;;;;;;26.63;13.68;;;;;;;;;;4894703;29;20436;-64
2021/12/22 14:26:49;;;;;;;25.17;12.88;;;;;;;;;;4895887;29;20067;-67
2021/12/22 14:29:15;;;;;;;21.25;11.93;;;;;;;;;;4897763;29;20024;-68
2021/12/22 14:32:08;;;;;;;29.58;14.75;;;;;;;;;;4896116;29;20043;-62
2021/12/22 14:34:34;;;;;;;49.53;27.00;;;;;;;;;;4891394;29;20049;-61
2021/12/22 14:37:03;;;;;;;37.92;19.77;;;;;;;;;;4896297;29;20112;-63
2021/12/22 14:39:42;;;;;;;30.42;15.13;;;;;;;;;;4896497;29;20441;-63
2021/12/22 14:42:22;;;;;;;35.22;16.90;;;;;;;;;;4896219;29;20469;-62
2021/12/22 14:44:48;;;;;;;46.97;25.45;;;;;;;;;;4896355;29;20033;-66
2021/12/22 14:47:21;;;;;;;38.72;20.42;;;;;;;;;;4896125;29;20048;-63
2021/12/22 14:49:50;;;;;;;49.40;23.40;;;;;;;;;;4896108;29;20025;-64
2021/12/22 14:52:19;;;;;;;31.00;16.13;;;;;;;;;;4895696;29;20063;-67
2021/12/22 14:54:46;;;;;;;50.38;23.92;;;;;;;;;;4896298;29;20035;-63
2021/12/22 14:57:21;;;;;;;57.85;26.88;;;;;;;;;;4895378;29;20599;-70
2021/12/22 14:59:47;;;;;;;44.60;20.98;;;;;;;;;;4895177;29;20035;-66
2021/12/22 15:02:13;;;;;;;55.90;25.98;;;;;;;;;;4895564;29;20029;-64